createdAt,value
2023-04-16T00:00:40.728Z,96.65
2023-04-16T00:04:43.488Z,96.63
2023-04-16T00:08:44.873Z,96.83
2023-04-16T00:12:46.242Z,96.09
2023-04-16T00:16:47.617Z,96.79
2023-04-16T00:20:50.519Z,96.88
2023-04-16T00:24:51.846Z,97.08
2023-04-16T00:28:53.168Z,97.00
2023-04-16T00:32:54.543Z,97.02
2023-04-16T00:36:57.335Z,97.16
2023-04-16T00:40:58.967Z,97.41
2023-04-16T00:45:00.296Z,96.88
2023-04-16T00:49:02.615Z,96.04
2023-04-16T00:53:05.372Z,95.94
2023-04-16T00:57:06.711Z,96.58
2023-04-16T01:01:08.164Z,97.06
2023-04-16T01:05:09.593Z,97.19
2023-04-16T01:09:12.300Z,97.39
2023-04-16T01:13:13.651Z,97.20
2023-04-16T01:17:15.053Z,97.28
2023-04-16T01:21:17.780Z,96.14
2023-04-16T01:25:19.092Z,96.09
2023-04-16T01:29:20.441Z,96.87
2023-04-16T01:33:21.774Z,97.03
2023-04-16T01:37:24.511Z,97.40
2023-04-16T01:41:26.463Z,96.53
2023-04-16T01:45:27.866Z,95.66
2023-04-16T01:49:29.378Z,96.49
2023-04-16T01:53:32.104Z,97.12
2023-04-16T01:57:33.438Z,97.35
2023-04-16T02:01:34.805Z,96.18
2023-04-16T02:05:36.109Z,96.50
2023-04-16T02:09:39.338Z,96.84
2023-04-16T02:13:40.657Z,96.23
2023-04-16T02:17:42.078Z,96.67
2023-04-16T02:21:43.443Z,97.24
2023-04-16T02:25:46.801Z,97.53
2023-04-16T02:29:48.142Z,97.79
2023-04-16T02:33:49.503Z,96.78
2023-04-16T02:37:50.837Z,97.21
2023-04-16T02:41:53.562Z,97.58
2023-04-16T02:45:55.018Z,97.87
2023-04-16T02:49:56.413Z,97.44
2023-04-16T02:53:57.732Z,97.53
2023-04-16T02:58:00.438Z,97.89
2023-04-16T03:02:01.786Z,97.71
2023-04-16T03:06:03.512Z,97.42
2023-04-16T03:10:05.403Z,97.90
2023-04-16T03:14:08.158Z,97.73
2023-04-16T03:18:09.490Z,97.09
2023-04-16T03:22:10.830Z,97.24
2023-04-16T03:26:12.201Z,97.56
2023-04-16T03:30:15.006Z,97.69
2023-04-16T03:34:16.501Z,96.78
2023-04-16T03:38:17.912Z,96.92
2023-04-16T03:42:19.282Z,97.80
2023-04-16T03:46:22.036Z,97.82
2023-04-16T03:50:23.421Z,97.54
2023-04-16T03:54:24.794Z,97.62
2023-04-16T03:58:26.190Z,97.85
2023-04-16T04:02:29.060Z,98.12
2023-04-16T04:06:30.555Z,98.39
2023-04-16T04:10:32.057Z,98.60
2023-04-16T04:14:33.489Z,98.04
2023-04-16T04:18:36.247Z,97.76
2023-04-16T04:22:37.600Z,97.76
2023-04-16T04:26:39.003Z,98.10
2023-04-16T04:30:40.431Z,98.20
2023-04-16T04:34:43.173Z,98.01
2023-04-16T04:38:44.582Z,97.57
2023-04-16T04:42:45.983Z,98.08
2023-04-16T04:46:47.463Z,97.82
2023-04-16T04:50:50.218Z,97.58
2023-04-16T04:54:52.618Z,97.33
2023-04-16T04:58:54.571Z,97.20
2023-04-16T05:02:56.003Z,97.12
2023-04-16T05:06:58.833Z,96.96
2023-04-16T05:11:00.248Z,96.85
2023-04-16T05:15:01.634Z,96.67
2023-04-16T05:19:03.133Z,96.54
2023-04-16T05:23:05.913Z,96.28
2023-04-16T05:27:07.325Z,95.74
2023-04-16T05:31:08.771Z,95.10
2023-04-16T05:35:10.296Z,95.17
2023-04-16T05:39:13.038Z,94.28
2023-04-16T05:43:14.398Z,94.80
2023-04-16T05:47:15.788Z,94.92
2023-04-16T05:51:17.246Z,94.77
2023-04-16T05:55:19.996Z,93.62
2023-04-16T05:59:21.440Z,92.73
2023-04-16T06:03:22.873Z,92.64
2023-04-16T06:07:24.315Z,92.23
2023-04-16T06:11:27.061Z,90.64
2023-04-16T06:15:28.644Z,90.17
2023-04-16T06:19:30.013Z,89.88
2023-04-16T06:23:31.430Z,89.83
2023-04-16T06:27:34.250Z,88.27
2023-04-16T06:31:35.750Z,84.16
2023-04-16T06:35:37.195Z,84.02
2023-04-16T06:39:38.598Z,84.15
2023-04-16T06:43:41.419Z,84.78
2023-04-16T06:47:42.911Z,85.08
2023-04-16T06:51:44.461Z,84.05
2023-04-16T06:55:45.863Z,84.09
2023-04-16T06:59:48.608Z,82.60
2023-04-16T07:03:50.244Z,81.18
2023-04-16T07:07:51.852Z,80.56
2023-04-16T07:11:53.528Z,78.73
2023-04-16T07:15:56.264Z,78.19
2023-04-16T07:19:57.629Z,78.80
2023-04-16T07:23:59.006Z,79.16
2023-04-16T07:28:00.379Z,78.33
2023-04-16T07:32:03.166Z,79.23
2023-04-16T07:36:04.842Z,79.98
2023-04-16T07:40:06.936Z,78.23
2023-04-16T07:44:08.356Z,76.81
2023-04-16T07:48:11.089Z,76.53
2023-04-16T07:52:12.646Z,74.81
2023-04-16T07:56:14.012Z,72.37
2023-04-16T08:00:15.550Z,73.56
2023-04-16T08:04:18.459Z,73.77
2023-04-16T08:08:19.858Z,74.46
2023-04-16T08:12:21.330Z,74.88
2023-04-16T08:16:22.808Z,73.54
2023-04-16T08:20:25.747Z,74.37
2023-04-16T08:24:27.116Z,73.64
2023-04-16T08:28:28.491Z,73.68
2023-04-16T08:32:29.937Z,73.72
2023-04-16T08:36:32.716Z,75.51
2023-04-16T08:40:35.302Z,75.47
2023-04-16T08:44:37.697Z,74.91
2023-04-16T08:48:41.137Z,74.50
2023-04-16T08:52:46.018Z,74.55
2023-04-16T08:56:48.090Z,73.15
2023-04-16T09:00:49.564Z,71.55
2023-04-16T09:04:51.072Z,70.88
2023-04-16T09:08:54.113Z,66.92
2023-04-16T09:12:55.836Z,66.67
2023-04-16T09:16:58.628Z,67.75
2023-04-16T09:21:00.051Z,67.51
2023-04-16T09:25:02.867Z,68.64
2023-04-16T09:29:04.379Z,68.24
2023-04-16T09:33:12.887Z,68.91
2023-04-16T09:37:14.997Z,66.71
2023-04-16T09:41:17.986Z,66.88
2023-04-16T09:45:19.367Z,65.27
2023-04-16T09:49:20.735Z,66.46
2023-04-16T09:53:24.172Z,66.24
2023-04-16T09:57:26.930Z,64.49
2023-04-16T10:01:30.525Z,61.85
2023-04-16T10:05:31.951Z,63.23
2023-04-16T10:09:37.303Z,64.81
2023-04-16T10:13:40.037Z,64.48
2023-04-16T10:17:42.530Z,63.29
2023-04-16T10:21:44.890Z,62.48
2023-04-16T10:25:47.659Z,64.24
2023-04-16T10:29:50.833Z,64.05
2023-04-16T10:33:52.360Z,62.82
2023-04-16T10:37:56.305Z,63.70
2023-04-16T10:42:07.528Z,63.59
2023-04-16T10:46:20.627Z,62.22
2023-04-16T10:50:22.043Z,65.28
2023-04-16T10:54:24.524Z,66.76
2023-04-16T10:58:29.294Z,67.78
2023-04-16T11:02:32.258Z,68.14
2023-04-16T11:06:33.772Z,67.59
2023-04-16T11:10:38.927Z,70.29
2023-04-16T11:14:40.438Z,70.05
2023-04-16T11:18:51.273Z,71.30
2023-04-16T11:22:54.221Z,75.85
2023-04-16T11:26:55.583Z,78.33
2023-04-16T11:30:57.014Z,79.13
2023-04-16T11:34:59.858Z,81.22
2023-04-16T11:39:01.784Z,80.76
2023-04-16T11:43:03.900Z,79.98
2023-04-16T11:47:05.816Z,80.34
2023-04-16T11:51:08.573Z,76.81
2023-04-16T11:55:09.956Z,77.62
2023-04-16T11:59:12.154Z,78.66
2023-04-16T12:03:14.130Z,76.29
2023-04-16T12:07:17.087Z,73.51
2023-04-16T12:11:18.452Z,76.51
2023-04-16T12:15:19.856Z,76.79
2023-04-16T12:19:21.234Z,78.15
2023-04-16T12:23:24.756Z,76.52
2023-04-16T12:27:26.180Z,77.01
2023-04-16T12:31:36.634Z,76.42
2023-04-16T12:35:38.282Z,77.03
2023-04-16T12:39:41.017Z,77.19
2023-04-16T12:43:42.431Z,78.38
2023-04-16T12:47:43.818Z,76.62
2023-04-16T12:51:45.308Z,76.54
2023-04-16T12:55:48.173Z,75.80
2023-04-16T12:59:49.562Z,75.05
2023-04-16T13:03:50.999Z,74.55
2023-04-16T13:07:52.536Z,71.92
2023-04-16T13:11:55.320Z,72.23
2023-04-16T13:15:56.707Z,72.92
2023-04-16T13:19:58.076Z,72.21
2023-04-16T13:23:59.459Z,70.46
2023-04-16T13:28:02.227Z,70.51
2023-04-16T13:32:04.218Z,67.97
2023-04-16T13:36:06.287Z,64.60
2023-04-16T13:40:08.474Z,63.83
2023-04-16T13:44:11.310Z,65.57
2023-04-16T13:48:12.802Z,63.61
2023-04-16T13:52:14.200Z,62.42
2023-04-16T13:56:15.603Z,62.04
2023-04-16T14:00:18.684Z,61.75
2023-04-16T14:04:20.906Z,61.88
2023-04-16T14:08:22.351Z,60.77
2023-04-16T14:12:23.963Z,57.76
2023-04-16T14:16:26.781Z,59.46
2023-04-16T14:20:28.166Z,58.78
2023-04-16T14:24:29.523Z,58.16
2023-04-16T14:28:30.926Z,58.58
2023-04-16T14:32:33.659Z,57.25
2023-04-16T14:36:35.272Z,59.68
2023-04-16T14:40:36.784Z,57.72
2023-04-16T14:44:38.355Z,55.72
2023-04-16T14:48:41.079Z,56.94
2023-04-16T14:52:42.498Z,59.81
2023-04-16T14:56:43.914Z,59.65
2023-04-16T15:00:45.332Z,56.82
2023-04-16T15:04:48.108Z,57.88
2023-04-16T15:08:49.471Z,60.93
2023-04-16T15:12:50.868Z,63.29
2023-04-16T15:16:52.327Z,59.63
2023-04-16T15:20:55.227Z,58.81
2023-04-16T15:24:56.589Z,59.48
2023-04-16T15:28:57.986Z,58.52
2023-04-16T15:32:59.625Z,60.20
2023-04-16T15:37:02.389Z,60.48
2023-04-16T15:41:03.784Z,60.43
2023-04-16T15:45:05.804Z,60.75
2023-04-16T15:49:07.259Z,60.00
2023-04-16T15:53:10.017Z,61.26
2023-04-16T15:57:11.396Z,61.53
2023-04-16T16:01:12.767Z,62.67
2023-04-16T16:05:14.398Z,63.49
2023-04-16T16:09:17.320Z,64.34
2023-04-16T16:13:18.685Z,63.96
2023-04-16T16:17:20.089Z,64.49
2023-04-16T16:21:21.526Z,64.29
2023-04-16T16:25:24.513Z,64.34
2023-04-16T16:29:25.869Z,64.50
2023-04-16T16:33:27.278Z,65.05
2023-04-16T16:37:28.969Z,63.93
2023-04-16T16:41:31.743Z,65.04
2023-04-16T16:45:33.113Z,65.51
2023-04-16T16:49:34.498Z,66.95
2023-04-16T16:53:35.865Z,66.55
2023-04-16T16:57:38.988Z,69.52
2023-04-16T17:01:42.132Z,72.16
2023-04-16T17:05:43.510Z,75.05
2023-04-16T17:09:44.909Z,76.20
2023-04-16T17:13:47.637Z,77.25
2023-04-16T17:17:49.049Z,77.46
2023-04-16T17:21:50.548Z,78.87
2023-04-16T17:25:51.946Z,79.46
2023-04-16T17:29:55.107Z,81.88
2023-04-16T17:33:56.502Z,83.56
2023-04-16T17:37:57.850Z,84.76
2023-04-16T17:41:59.227Z,84.68
2023-04-16T17:46:01.990Z,84.85
2023-04-16T17:50:03.593Z,84.47
2023-04-16T17:54:04.998Z,84.93
2023-04-16T17:58:06.353Z,85.51
2023-04-16T18:02:09.159Z,87.02
2023-04-16T18:06:10.649Z,87.01
2023-04-16T18:10:12.061Z,86.54
2023-04-16T18:14:13.546Z,86.59
2023-04-16T18:18:16.385Z,87.35
2023-04-16T18:22:17.750Z,87.59
2023-04-16T18:26:22.388Z,88.45
2023-04-16T18:30:26.670Z,89.24
2023-04-16T18:34:29.786Z,89.38
2023-04-16T18:38:31.189Z,89.53
2023-04-16T18:42:32.559Z,90.26
2023-04-16T18:46:34.010Z,90.79
2023-04-16T18:50:36.912Z,91.45
2023-04-16T18:54:38.273Z,91.85
2023-04-16T18:58:39.668Z,92.34
2023-04-16T19:02:41.465Z,91.86
2023-04-16T19:06:44.229Z,91.87
2023-04-16T19:10:47.215Z,91.89
2023-04-16T19:14:48.585Z,91.77
2023-04-16T19:18:49.957Z,92.05
2023-04-16T19:22:52.702Z,91.96
2023-04-16T19:26:54.057Z,91.80
2023-04-16T19:30:55.430Z,91.88
2023-04-16T19:34:56.776Z,92.75
2023-04-16T19:38:59.611Z,92.62
2023-04-16T19:43:01.039Z,92.73
2023-04-16T19:47:02.408Z,92.69
2023-04-16T19:51:03.908Z,93.20
2023-04-16T19:55:07.451Z,92.92
2023-04-16T19:59:09.182Z,93.07
2023-04-16T20:03:10.791Z,93.30
2023-04-16T20:07:12.236Z,93.24
2023-04-16T20:11:14.966Z,92.86
2023-04-16T20:15:16.433Z,92.87
2023-04-16T20:19:17.914Z,92.93
2023-04-16T20:23:19.346Z,93.03
2023-04-16T20:27:22.081Z,93.35
2023-04-16T20:31:23.599Z,93.58
2023-04-16T20:35:25.106Z,93.39
2023-04-16T20:39:26.454Z,93.10
2023-04-16T20:43:29.182Z,92.93
2023-04-16T20:47:30.593Z,92.75
2023-04-16T20:51:32.039Z,93.13
2023-04-16T20:55:33.396Z,93.10
2023-04-16T20:59:36.100Z,93.60
2023-04-16T21:03:37.560Z,93.35
2023-04-16T21:07:39.255Z,93.95
2023-04-16T21:11:40.627Z,94.00
2023-04-16T21:15:44.342Z,93.59
2023-04-16T21:19:45.732Z,93.94
2023-04-16T21:23:47.102Z,93.17
2023-04-16T21:27:48.474Z,93.39
2023-04-16T21:31:51.299Z,93.52
2023-04-16T21:35:53.102Z,92.51
2023-04-16T21:39:57.476Z,92.19
2023-04-16T21:43:58.821Z,93.21
2023-04-16T21:48:01.586Z,93.51
2023-04-16T21:52:02.988Z,93.32
2023-04-16T21:56:04.545Z,92.74
2023-04-16T22:00:06.756Z,93.74
2023-04-16T22:04:09.735Z,93.75
2023-04-16T22:12:18.725Z,93.46
2023-04-16T22:16:20.121Z,93.10
2023-04-16T22:20:22.880Z,93.06
2023-04-16T22:24:24.266Z,91.76
2023-04-16T22:28:25.698Z,92.44
2023-04-16T22:32:27.274Z,93.27
2023-04-16T22:36:30.073Z,92.53
2023-04-16T22:40:31.423Z,92.00
2023-04-16T22:44:32.786Z,91.76
2023-04-16T22:48:34.357Z,91.89
2023-04-16T22:52:37.078Z,91.37
2023-04-16T22:56:38.469Z,92.45
2023-04-16T23:00:39.856Z,92.55
2023-04-16T23:04:41.243Z,92.33
2023-04-16T23:08:43.961Z,92.67
2023-04-16T23:12:45.342Z,92.82
2023-04-16T23:16:46.760Z,93.22
2023-04-16T23:20:50.184Z,92.94
2023-04-16T23:24:52.960Z,92.97
2023-04-16T23:28:54.356Z,92.74
2023-04-16T23:32:55.780Z,92.38
2023-04-16T23:36:57.215Z,92.19
2023-04-16T23:40:59.936Z,93.03
2023-04-16T23:45:01.323Z,92.87
2023-04-16T23:49:02.811Z,92.74
2023-04-16T23:53:04.194Z,93.45
2023-04-16T23:57:06.921Z,93.60
